createdAt,value
2022-11-19T00:00:20.104Z,1011.1
2022-11-19T00:05:20.111Z,1011.2
2022-11-19T00:10:20.100Z,1011.2
2022-11-19T00:15:20.116Z,1011.3
2022-11-19T00:20:20.111Z,1011.4
2022-11-19T00:25:20.102Z,1011.3
2022-11-19T00:30:46.184Z,1011.4
2022-11-19T00:35:20.104Z,1011.3
2022-11-19T00:40:20.115Z,1011.4
2022-11-19T00:45:20.108Z,1011.5
2022-11-19T00:50:20.096Z,1011.5
2022-11-19T00:55:20.109Z,1011.5
2022-11-19T01:00:20.098Z,1011.6
2022-11-19T01:05:20.102Z,1011.6
2022-11-19T01:10:20.111Z,1011.7
2022-11-19T01:15:20.107Z,1011.7
2022-11-19T01:20:20.153Z,1011.9
2022-11-19T01:25:20.108Z,1011.9
2022-11-19T01:30:20.126Z,1011.9
2022-11-19T01:35:20.104Z,1011.9
2022-11-19T01:40:20.105Z,1012
2022-11-19T01:45:20.115Z,1011.9
2022-11-19T01:50:20.103Z,1012
2022-11-19T01:55:20.116Z,1012
2022-11-19T02:00:20.101Z,1011.9
2022-11-19T02:05:20.112Z,1011.9
2022-11-19T02:10:20.098Z,1011.9
2022-11-19T02:15:20.104Z,1012.1
2022-11-19T02:20:20.108Z,1012.1
2022-11-19T02:25:20.103Z,1012.1
2022-11-19T02:30:20.131Z,1012.1
2022-11-19T02:35:20.119Z,1012.1
2022-11-19T02:40:20.110Z,1012.2
2022-11-19T02:45:20.104Z,1012.2
2022-11-19T02:50:20.102Z,1012.1
2022-11-19T02:55:20.104Z,1012.2
2022-11-19T03:00:20.120Z,1012.2
2022-11-19T03:05:20.101Z,1012.2
2022-11-19T03:10:20.107Z,1012.1
2022-11-19T03:15:20.108Z,1012.3
2022-11-19T03:20:20.103Z,1012.3
2022-11-19T03:25:20.111Z,1012.4
2022-11-19T03:30:20.108Z,1012.6
2022-11-19T03:35:20.101Z,1012.6
2022-11-19T03:40:20.110Z,1012.7
2022-11-19T03:45:20.105Z,1012.6
2022-11-19T03:50:20.102Z,1012.6
2022-11-19T03:55:20.111Z,1012.7
2022-11-19T04:00:20.101Z,1012.7
2022-11-19T04:05:20.110Z,1012.7
2022-11-19T04:10:20.105Z,1012.6
2022-11-19T04:15:20.105Z,1012.7
2022-11-19T04:20:20.101Z,1012.7
2022-11-19T04:25:20.095Z,1012.8
2022-11-19T04:30:20.117Z,1012.9
2022-11-19T04:35:20.103Z,1012.9
2022-11-19T04:40:20.103Z,1012.9
2022-11-19T04:45:20.114Z,1012.9
2022-11-19T04:50:20.099Z,1012.9
2022-11-19T04:55:20.104Z,1012.9
2022-11-19T05:00:20.097Z,1012.8
2022-11-19T05:05:20.106Z,1012.8
2022-11-19T05:10:20.109Z,1013
2022-11-19T05:15:20.099Z,1013
2022-11-19T05:20:20.114Z,1013.1
2022-11-19T05:25:20.117Z,1013.1
2022-11-19T05:30:20.258Z,1013.2
2022-11-19T05:35:20.114Z,1013.3
2022-11-19T05:40:20.105Z,1013.3
2022-11-19T05:45:20.106Z,1013.2
2022-11-19T05:50:20.107Z,1013.3
2022-11-19T05:55:20.108Z,1013.4
2022-11-19T06:00:20.100Z,1013.3
2022-11-19T06:05:20.113Z,1013.3
2022-11-19T06:10:20.110Z,1013.3
2022-11-19T06:15:20.108Z,1013.3
2022-11-19T06:20:20.101Z,1013.3
2022-11-19T06:25:20.112Z,1013.3
2022-11-19T06:30:20.104Z,1013.3
2022-11-19T06:35:20.120Z,1013.4
2022-11-19T06:40:20.099Z,1013.7
2022-11-19T06:45:20.100Z,1013.7
2022-11-19T06:50:20.120Z,1013.7
2022-11-19T06:55:20.109Z,1013.7
2022-11-19T07:00:20.118Z,1013.8
2022-11-19T07:05:20.122Z,1013.8
2022-11-19T07:10:20.117Z,1013.9
2022-11-19T07:15:20.113Z,1013.9
2022-11-19T07:20:20.109Z,1013.9
2022-11-19T07:25:20.115Z,1013.9
2022-11-19T07:30:20.103Z,1013.9
2022-11-19T07:35:20.103Z,1013.9
2022-11-19T07:40:20.114Z,1013.9
2022-11-19T07:45:20.111Z,1014
2022-11-19T07:50:20.110Z,1014
2022-11-19T07:55:20.114Z,1014.1
2022-11-19T08:00:20.093Z,1014.1
2022-11-19T08:05:20.115Z,1014.2
2022-11-19T08:10:20.102Z,1014.3
2022-11-19T08:15:20.101Z,1014.2
2022-11-19T08:20:20.098Z,1014.2
2022-11-19T08:25:20.310Z,1014.3
2022-11-19T08:30:20.098Z,1014.5
2022-11-19T08:35:20.106Z,1014.4
2022-11-19T08:40:20.112Z,1014.4
2022-11-19T08:45:20.982Z,1014.4
2022-11-19T08:50:20.101Z,1014.5
2022-11-19T08:55:20.100Z,1014.6
2022-11-19T09:00:20.116Z,1014.5
2022-11-19T09:05:20.112Z,1014.6
2022-11-19T09:10:20.101Z,1014.5
2022-11-19T09:15:20.122Z,1014.4
2022-11-19T09:20:20.105Z,1014.5
2022-11-19T09:25:20.117Z,1014.5
2022-11-19T09:30:20.103Z,1014.6
2022-11-19T09:35:20.116Z,1014.7
2022-11-19T09:40:20.152Z,1014.7
2022-11-19T09:45:20.113Z,1014.8
2022-11-19T09:50:20.157Z,1014.8
2022-11-19T09:55:20.131Z,1014.9
2022-11-19T10:00:20.150Z,1014.8
2022-11-19T10:05:20.112Z,1014.8
2022-11-19T10:10:20.140Z,1014.8
2022-11-19T10:15:20.114Z,1014.8
2022-11-19T10:20:20.099Z,1014.8
2022-11-19T10:25:20.121Z,1014.8
2022-11-19T10:30:20.112Z,1014.9
2022-11-19T10:35:20.122Z,1014.9
2022-11-19T10:40:20.101Z,1014.9
2022-11-19T10:45:20.107Z,1014.8
2022-11-19T10:50:20.104Z,1014.9
2022-11-19T10:55:20.111Z,1014.7
2022-11-19T11:00:20.114Z,1014.8
2022-11-19T11:05:20.221Z,1014.8
2022-11-19T11:10:20.100Z,1014.7
2022-11-19T11:15:20.186Z,1014.8
2022-11-19T11:20:20.104Z,1014.6
2022-11-19T11:25:20.243Z,1014.7
2022-11-19T11:30:20.094Z,1014.6
2022-11-19T11:35:20.190Z,1014.6
2022-11-19T11:40:20.095Z,1014.6
2022-11-19T11:45:20.103Z,1014.6
2022-11-19T11:50:20.111Z,1014.5
2022-11-19T11:55:20.107Z,1014.5
2022-11-19T12:00:20.103Z,1014.5
2022-11-19T12:05:20.127Z,1014.5
2022-11-19T12:10:20.117Z,1014.5
2022-11-19T12:15:20.107Z,1014.5
2022-11-19T12:20:20.097Z,1014.5
2022-11-19T12:25:20.111Z,1014.5
2022-11-19T12:30:20.112Z,1014.5
2022-11-19T12:35:20.108Z,1014.4
2022-11-19T12:40:20.101Z,1014.6
2022-11-19T12:45:20.112Z,1014.6
2022-11-19T12:50:20.115Z,1014.5
2022-11-19T12:55:20.106Z,1014.6
2022-11-19T13:00:20.133Z,1014.6
2022-11-19T13:05:20.131Z,1014.6
2022-11-19T13:10:20.116Z,1014.6
2022-11-19T13:15:20.112Z,1014.7
2022-11-19T13:20:20.101Z,1014.8
2022-11-19T13:25:20.100Z,1014.7
2022-11-19T13:30:20.106Z,1014.8
2022-11-19T13:35:20.119Z,1014.8
2022-11-19T13:40:20.098Z,1014.6
2022-11-19T13:45:20.105Z,1014.7
2022-11-19T13:50:20.100Z,1014.8
2022-11-19T13:55:20.113Z,1014.7
2022-11-19T14:00:20.105Z,1014.7
2022-11-19T14:05:20.111Z,1014.7
2022-11-19T14:10:20.099Z,1014.7
2022-11-19T14:15:20.117Z,1014.7
2022-11-19T14:20:20.102Z,1014.8
2022-11-19T14:25:20.108Z,1014.7
2022-11-19T14:30:20.098Z,1014.7
2022-11-19T14:35:20.110Z,1014.7
2022-11-19T14:40:20.104Z,1014.5
2022-11-19T14:45:20.106Z,1014.8
2022-11-19T14:50:20.102Z,1015
2022-11-19T14:55:20.108Z,1015.1
2022-11-19T15:00:20.100Z,1015.1
2022-11-19T15:05:20.113Z,1015.1
2022-11-19T15:10:20.108Z,1015
2022-11-19T15:15:20.105Z,1015
2022-11-19T15:20:20.106Z,1014.9
2022-11-19T15:25:20.108Z,1014.9
2022-11-19T15:30:20.120Z,1015
2022-11-19T15:35:20.099Z,1015
2022-11-19T15:40:20.104Z,1014.8
2022-11-19T15:45:20.118Z,1014.8
2022-11-19T15:50:20.101Z,1014.8
2022-11-19T15:55:20.103Z,1014.9
2022-11-19T16:00:20.098Z,1014.9
2022-11-19T16:05:20.114Z,1014.9
2022-11-19T16:10:20.100Z,1014.9
2022-11-19T16:15:20.095Z,1014.9
2022-11-19T16:20:20.113Z,1014.9
2022-11-19T16:25:20.108Z,1015
2022-11-19T16:30:20.144Z,1014.9
2022-11-19T16:35:20.102Z,1015
2022-11-19T16:40:20.105Z,1015
2022-11-19T16:45:20.114Z,1015.2
2022-11-19T16:50:20.098Z,1015.2
2022-11-19T16:55:20.119Z,1015.2
2022-11-19T17:00:20.099Z,1015.2
2022-11-19T17:05:20.109Z,1015.3
2022-11-19T17:10:24.068Z,1015.3
2022-11-19T17:15:20.140Z,1015.2
2022-11-19T17:20:20.112Z,1015.2
2022-11-19T17:25:20.121Z,1015.2
2022-11-19T17:30:20.114Z,1015.1
2022-11-19T17:35:20.118Z,1015.3
2022-11-19T17:40:20.110Z,1015.3
2022-11-19T17:45:20.127Z,1015.3
2022-11-19T17:50:20.102Z,1015.4
2022-11-19T17:55:20.103Z,1015.5
2022-11-19T18:00:20.104Z,1015.5
2022-11-19T18:05:20.103Z,1015.5
2022-11-19T18:10:20.107Z,1015.5
2022-11-19T18:15:20.110Z,1015.5
2022-11-19T18:20:20.123Z,1015.5
2022-11-19T18:25:20.151Z,1015.6
2022-11-19T18:30:20.126Z,1015.7
2022-11-19T18:35:20.119Z,1015.6
2022-11-19T18:40:20.108Z,1015.6
2022-11-19T18:45:20.122Z,1015.6
2022-11-19T18:50:20.106Z,1015.6
2022-11-19T18:55:20.097Z,1015.7
2022-11-19T19:00:20.098Z,1015.8
2022-11-19T19:05:20.114Z,1015.7
2022-11-19T19:10:20.098Z,1015.7
2022-11-19T19:15:20.109Z,1015.8
2022-11-19T19:20:20.102Z,1015.8
2022-11-19T19:25:20.107Z,1015.7
2022-11-19T19:30:20.105Z,1015.7
2022-11-19T19:35:20.106Z,1015.7
2022-11-19T19:40:20.099Z,1015.7
2022-11-19T19:45:20.104Z,1015.8
2022-11-19T19:50:20.099Z,1015.7
2022-11-19T19:55:20.114Z,1015.8
2022-11-19T20:00:20.107Z,1015.8
2022-11-19T20:05:20.111Z,1015.8
2022-11-19T20:10:20.101Z,1015.9
2022-11-19T20:15:20.112Z,1016
2022-11-19T20:20:20.102Z,1016.1
2022-11-19T20:25:20.111Z,1016.1
2022-11-19T20:30:20.102Z,1016.1
2022-11-19T20:35:20.118Z,1016
2022-11-19T20:40:20.098Z,1016
2022-11-19T20:45:20.121Z,1016.1
2022-11-19T20:50:20.108Z,1016.2
2022-11-19T20:55:20.107Z,1016.2
2022-11-19T21:00:20.105Z,1016.2
2022-11-19T21:05:20.106Z,1016.3
2022-11-19T21:10:20.090Z,1016.3
2022-11-19T21:15:20.105Z,1016.3
2022-11-19T21:20:20.109Z,1016.3
2022-11-19T21:25:20.102Z,1016.3
2022-11-19T21:30:20.101Z,1016.3
2022-11-19T21:35:20.109Z,1016.2
2022-11-19T21:40:20.103Z,1016.1
2022-11-19T21:45:20.107Z,1016.1
2022-11-19T21:50:20.097Z,1016
2022-11-19T21:55:20.108Z,1015.9
2022-11-19T22:00:20.109Z,1015.9
2022-11-19T22:05:20.118Z,1016
2022-11-19T22:10:20.095Z,1015.8
2022-11-19T22:15:20.109Z,1015.6
2022-11-19T22:20:20.098Z,1015.7
2022-11-19T22:25:20.110Z,1015.7
2022-11-19T22:30:20.096Z,1015.7
2022-11-19T22:35:20.114Z,1015.8
2022-11-19T22:40:20.103Z,1015.8
2022-11-19T22:45:20.110Z,1015.7
2022-11-19T22:50:20.108Z,1015.6
2022-11-19T22:55:20.104Z,1015.7
2022-11-19T23:00:20.101Z,1015.7
2022-11-19T23:05:20.115Z,1015.9
2022-11-19T23:10:20.111Z,1015.8
2022-11-19T23:15:20.115Z,1015.7
2022-11-19T23:20:20.329Z,1015.7
2022-11-19T23:25:20.105Z,1015.7
2022-11-19T23:30:20.104Z,1015.6
2022-11-19T23:35:20.107Z,1015.6
2022-11-19T23:40:20.099Z,1015.5
2022-11-19T23:45:20.099Z,1015.4
2022-11-19T23:50:20.098Z,1015.6
2022-11-19T23:55:20.106Z,1015.5
